Plum Tree, Indiana
Current Conditions -  °F | °C
As of 6:55 PM on Wednesday 26 Nov 2014 (Local Time) from KHHG Reporting Station
Overcast Overcast  
Wind Chill: 22°   Ceiling: 2000
Heat Index: 28°   Visibility: 10mi
Dew Point: 22°   Wind: 5mph
Humidity: 78%   Direction: 30°NNE
Pressure: 30.08"   Gusts: NA
Location:  40.6897°N, 85.3916°W
Report Text: KHHG 262355Z AUTO 03004KT 10SM OVC020 M02/M06 A3008 RMK AO2 T10251058 11020 21025
Loading
Personal Weather Stations






























Interactive Weather Map New forecast layout! Learn more

10-Day Weather Forecast

Advertisements
Track Severe Weather on mobile